createdAt,value
2019-06-20T00:00:46.656Z,23.50
2019-06-20T00:04:49.669Z,23.50
2019-06-20T00:08:52.706Z,22.90
2019-06-20T00:13:00.541Z,22.40
2019-06-20T00:17:01.779Z,22.30
2019-06-20T00:21:04.784Z,22.20
2019-06-20T00:25:07.982Z,22.00
2019-06-20T00:29:10.990Z,21.70
2019-06-20T00:33:14.013Z,21.50
2019-06-20T00:37:17.062Z,21.00
2019-06-20T00:41:20.065Z,20.60
2019-06-20T00:45:23.585Z,20.50
2019-06-20T00:49:26.587Z,20.40
2019-06-20T00:53:29.592Z,20.80
2019-06-20T00:57:32.597Z,20.90
2019-06-20T01:01:35.629Z,20.70
2019-06-20T01:05:38.634Z,20.30
2019-06-20T01:09:41.662Z,20.30
2019-06-20T01:13:44.757Z,20.30
2019-06-20T01:17:48.845Z,20.40
2019-06-20T01:21:52.151Z,20.10
2019-06-20T01:25:55.159Z,20.00
2019-06-20T01:29:58.173Z,20.40
2019-06-20T01:34:01.230Z,20.80
2019-06-20T01:38:04.367Z,20.80
2019-06-20T01:42:07.348Z,20.50
2019-06-20T01:46:10.367Z,20.60
2019-06-20T01:50:13.906Z,20.40
2019-06-20T01:54:16.996Z,20.10
2019-06-20T01:58:20.005Z,20.10
2019-06-20T02:02:23.155Z,20.00
2019-06-20T02:06:26.244Z,20.20
2019-06-20T02:10:29.324Z,20.00
2019-06-20T02:14:32.336Z,20.00
2019-06-20T02:18:36.141Z,20.00
2019-06-20T02:22:39.209Z,19.90
2019-06-20T02:26:42.219Z,19.90
2019-06-20T02:30:45.436Z,19.70
2019-06-20T02:34:50.556Z,19.70
2019-06-20T02:38:53.672Z,19.60
2019-06-20T02:42:56.683Z,19.90
2019-06-20T02:46:59.795Z,20.00
2019-06-20T02:51:03.209Z,19.70
2019-06-20T02:55:06.364Z,19.20
2019-06-20T02:59:09.579Z,19.20
2019-06-20T03:03:12.580Z,19.00
2019-06-20T03:07:15.589Z,19.20
2019-06-20T03:11:18.676Z,18.80
2019-06-20T03:15:21.717Z,18.60
2019-06-20T03:19:25.125Z,18.80
2019-06-20T03:23:28.138Z,18.80
2019-06-20T03:27:31.159Z,18.70
2019-06-20T03:31:34.165Z,18.60
2019-06-20T03:35:37.172Z,19.20
2019-06-20T03:39:40.269Z,18.90
2019-06-20T03:43:43.273Z,19.10
2019-06-20T03:47:46.285Z,18.90
2019-06-20T03:51:51.678Z,19.10
2019-06-20T03:55:54.224Z,19.40
2019-06-20T03:59:57.337Z,19.50
2019-06-20T04:04:00.335Z,19.50
2019-06-20T04:08:03.449Z,19.70
2019-06-20T04:12:06.443Z,19.50
2019-06-20T04:16:09.441Z,19.60
2019-06-20T04:20:12.714Z,19.50
2019-06-20T04:24:15.717Z,19.50
2019-06-20T04:28:18.726Z,19.70
2019-06-20T04:32:21.722Z,19.60
2019-06-20T04:36:24.728Z,19.90
2019-06-20T04:40:28.344Z,20.00
2019-06-20T04:44:31.376Z,20.20
2019-06-20T04:48:34.378Z,20.50
2019-06-20T04:52:37.392Z,20.40
2019-06-20T04:56:40.410Z,20.20
2019-06-20T05:00:43.592Z,20.30
2019-06-20T05:04:46.598Z,20.40
2019-06-20T05:08:49.605Z,20.60
2019-06-20T05:12:55.863Z,21.00
2019-06-20T05:16:57.620Z,21.30
2019-06-20T05:21:01.947Z,21.70
2019-06-20T05:25:05.659Z,22.00
2019-06-20T05:29:08.682Z,22.50
2019-06-20T05:33:11.705Z,23.10
2019-06-20T05:37:14.790Z,23.30
2019-06-20T05:41:17.991Z,23.60
2019-06-20T05:45:21.019Z,23.70
2019-06-20T05:49:24.058Z,23.40
2019-06-20T05:53:27.197Z,23.50
2019-06-20T05:57:30.216Z,23.50
2019-06-20T06:01:33.287Z,24.00
2019-06-20T06:05:37.190Z,23.70
2019-06-20T06:09:40.397Z,23.50
2019-06-20T06:13:43.530Z,23.20
2019-06-20T06:17:46.549Z,23.00
2019-06-20T06:21:50.587Z,23.30
2019-06-20T06:25:53.652Z,23.70
2019-06-20T06:29:56.687Z,24.30
2019-06-20T06:33:59.724Z,24.10
2019-06-20T06:38:02.912Z,24.30
2019-06-20T06:42:05.921Z,24.60
2019-06-20T06:46:09.034Z,24.70
2019-06-20T06:50:12.732Z,24.40
2019-06-20T06:54:15.867Z,24.70
2019-06-20T06:58:18.964Z,24.70
2019-06-20T07:02:21.976Z,24.50
2019-06-20T07:06:25.051Z,24.50
2019-06-20T07:10:28.151Z,24.50
2019-06-20T07:14:31.237Z,25.20
2019-06-20T07:18:34.350Z,25.20
2019-06-20T07:22:37.694Z,25.20
2019-06-20T07:26:40.854Z,25.40
2019-06-20T07:30:43.971Z,24.80
2019-06-20T07:34:47.708Z,25.00
2019-06-20T07:38:50.745Z,24.70
2019-06-20T07:42:53.846Z,25.50
2019-06-20T07:46:56.934Z,25.90
2019-06-20T07:51:00.037Z,26.30
2019-06-20T07:55:05.241Z,26.40
2019-06-20T07:59:08.339Z,26.50
2019-06-20T08:03:11.366Z,26.80
2019-06-20T08:07:14.511Z,26.10
2019-06-20T08:11:17.841Z,25.80
2019-06-20T08:15:22.035Z,25.60
2019-06-20T08:19:25.046Z,26.00
2019-06-20T08:23:29.383Z,25.90
2019-06-20T08:27:50.975Z,26.60
2019-06-20T08:31:54.103Z,25.80
2019-06-20T08:35:58.751Z,27.40
2019-06-20T08:40:22.844Z,29.50
2019-06-20T08:44:25.895Z,31.10
2019-06-20T08:48:29.061Z,31.50
2019-06-20T08:52:32.077Z,32.90
2019-06-20T08:56:35.256Z,32.70
2019-06-20T09:00:39.067Z,33.30
2019-06-20T09:04:42.083Z,32.70
2019-06-20T09:08:45.306Z,33.00
2019-06-20T09:12:48.410Z,33.90
2019-06-20T09:16:52.326Z,34.60
2019-06-20T09:20:56.024Z,34.30
2019-06-20T09:25:00.886Z,33.60
2019-06-20T09:29:04.177Z,33.40
2019-06-20T09:33:07.473Z,33.30
2019-06-20T09:37:10.689Z,33.40
2019-06-20T09:41:14.168Z,32.10
2019-06-20T09:45:18.386Z,31.20
2019-06-20T09:49:21.414Z,31.50
2019-06-20T09:53:24.436Z,32.60
2019-06-20T09:57:27.452Z,32.60
2019-06-20T10:01:31.168Z,33.90
2019-06-20T10:05:34.584Z,34.30
2019-06-20T10:09:37.836Z,33.90
2019-06-20T10:13:40.851Z,33.70
2019-06-20T10:17:44.025Z,33.50
2019-06-20T10:21:47.865Z,33.60
2019-06-20T10:25:51.654Z,32.80
2019-06-20T10:29:54.663Z,31.00
2019-06-20T10:33:57.664Z,31.40
2019-06-20T10:38:00.676Z,30.30
2019-06-20T10:42:04.382Z,30.10
2019-06-20T10:46:07.449Z,29.80
2019-06-20T10:50:10.673Z,30.40
2019-06-20T10:54:13.974Z,31.40
2019-06-20T10:58:16.985Z,32.00
2019-06-20T11:02:20.000Z,31.10
2019-06-20T11:06:23.012Z,30.70
2019-06-20T11:10:26.719Z,29.50
2019-06-20T11:14:29.733Z,29.60
2019-06-20T11:18:32.728Z,29.00
2019-06-20T11:22:37.871Z,27.90
2019-06-20T11:26:43.059Z,28.20
2019-06-20T11:30:56.109Z,28.90
2019-06-20T11:34:51.369Z,29.20
2019-06-20T11:38:54.442Z,29.50
2019-06-20T11:42:57.815Z,29.10
2019-06-20T11:47:00.863Z,29.30
2019-06-20T11:51:03.962Z,29.90
2019-06-20T11:55:07.536Z,30.20
2019-06-20T11:59:10.526Z,29.90
2019-06-20T12:03:13.532Z,29.70
2019-06-20T12:07:16.537Z,30.00
2019-06-20T12:11:19.557Z,30.30
2019-06-20T12:15:23.356Z,31.00
2019-06-20T12:19:26.358Z,30.90
2019-06-20T12:23:29.388Z,29.80
2019-06-20T12:27:33.076Z,29.40
2019-06-20T12:31:36.072Z,29.90
2019-06-20T12:35:39.541Z,30.20
2019-06-20T12:39:44.428Z,30.30
2019-06-20T12:43:48.323Z,29.60
2019-06-20T12:47:51.400Z,29.10
2019-06-20T12:51:54.399Z,29.10
2019-06-20T12:55:57.531Z,29.50
2019-06-20T13:00:00.545Z,28.90
2019-06-20T13:04:03.560Z,27.60
2019-06-20T13:08:06.576Z,28.30
2019-06-20T13:12:09.616Z,28.80
2019-06-20T13:16:12.623Z,28.60
2019-06-20T13:20:15.823Z,28.00
2019-06-20T13:24:18.860Z,28.40
2019-06-20T13:28:23.540Z,28.30
2019-06-20T13:32:26.525Z,28.60
2019-06-20T13:36:29.575Z,28.70
2019-06-20T13:40:32.579Z,28.40
2019-06-20T13:44:35.590Z,28.10
2019-06-20T13:48:38.976Z,28.30
2019-06-20T13:52:46.396Z,28.40
2019-06-20T13:56:49.434Z,28.90
2019-06-20T14:00:54.679Z,28.40
2019-06-20T14:04:57.925Z,28.30
2019-06-20T14:09:01.029Z,28.50
2019-06-20T14:13:18.335Z,27.50
2019-06-20T14:17:08.939Z,27.50
2019-06-20T14:21:11.949Z,27.00
2019-06-20T14:25:15.256Z,26.30
2019-06-20T14:29:19.982Z,26.30
2019-06-20T14:33:22.968Z,26.40
2019-06-20T14:37:25.984Z,25.70
2019-06-20T14:41:29.113Z,25.60
2019-06-20T14:45:32.133Z,24.90
2019-06-20T14:49:35.164Z,24.60
2019-06-20T14:53:38.182Z,25.00
2019-06-20T14:57:41.212Z,24.50
2019-06-20T15:01:46.397Z,24.50
2019-06-20T15:05:50.139Z,24.90
2019-06-20T15:09:53.314Z,25.30
2019-06-20T15:13:56.312Z,25.60
2019-06-20T15:17:59.355Z,25.50
2019-06-20T15:22:02.676Z,26.20
2019-06-20T15:26:05.678Z,26.30
2019-06-20T15:30:11.776Z,26.30
2019-06-20T15:34:14.788Z,26.30
2019-06-20T15:38:17.803Z,26.80
2019-06-20T15:42:22.467Z,27.20
2019-06-20T15:46:25.736Z,26.80
2019-06-20T15:50:28.745Z,26.50
2019-06-20T15:54:31.792Z,26.30
2019-06-20T15:58:34.817Z,26.10
2019-06-20T16:02:37.837Z,25.90
2019-06-20T16:06:40.885Z,25.70
2019-06-20T16:10:45.085Z,25.70
2019-06-20T16:14:48.246Z,25.70
2019-06-20T16:18:51.385Z,26.10
2019-06-20T16:22:54.508Z,26.20
2019-06-20T16:26:58.657Z,26.10
2019-06-20T16:31:08.674Z,25.60
2019-06-20T16:35:08.490Z,25.70
2019-06-20T16:39:11.507Z,25.20
2019-06-20T16:43:14.652Z,25.20
2019-06-20T16:47:17.860Z,25.40
2019-06-20T16:51:20.975Z,25.50
2019-06-20T16:55:24.006Z,25.50
2019-06-20T16:59:27.028Z,25.50
2019-06-20T17:03:41.191Z,25.50
2019-06-20T17:07:35.163Z,25.50
2019-06-20T17:11:38.225Z,25.30
2019-06-20T17:15:41.297Z,25.10
2019-06-20T17:19:44.330Z,24.70
2019-06-20T17:23:47.480Z,24.60
2019-06-20T17:27:51.730Z,24.50
2019-06-20T17:31:57.389Z,24.60
2019-06-20T17:35:59.994Z,24.50
2019-06-20T17:40:05.143Z,24.60
2019-06-20T17:44:09.286Z,24.50
2019-06-20T17:48:12.355Z,24.50
2019-06-20T17:52:15.432Z,24.40
2019-06-20T17:56:18.469Z,24.50
2019-06-20T18:00:26.665Z,24.50
2019-06-20T18:04:29.732Z,24.40
2019-06-20T18:08:32.780Z,24.30
2019-06-20T18:12:36.913Z,24.00
2019-06-20T18:16:39.937Z,23.80
2019-06-20T18:20:42.977Z,24.10
2019-06-20T18:24:45.993Z,23.60
2019-06-20T18:28:49.013Z,23.40
2019-06-20T18:32:54.198Z,23.20
2019-06-20T18:36:57.232Z,23.00
2019-06-20T18:41:00.246Z,22.80
2019-06-20T18:45:05.859Z,22.70
2019-06-20T18:49:08.864Z,22.50
2019-06-20T18:53:11.890Z,22.40
2019-06-20T18:57:14.892Z,22.50
2019-06-20T19:01:18.001Z,22.60
2019-06-20T19:05:21.144Z,22.60
2019-06-20T19:09:24.153Z,22.50
2019-06-20T19:13:27.181Z,22.40
2019-06-20T19:17:30.791Z,22.20
2019-06-20T19:21:33.833Z,22.10
2019-06-20T19:25:36.923Z,22.10
2019-06-20T19:29:39.936Z,22.10
2019-06-20T19:33:43.979Z,22.10
2019-06-20T19:37:46.997Z,22.00
2019-06-20T19:41:50.033Z,21.90
2019-06-20T19:45:53.073Z,21.80
2019-06-20T19:49:56.244Z,21.70
2019-06-20T19:53:59.287Z,21.90
2019-06-20T19:58:02.758Z,21.80
2019-06-20T20:02:06.027Z,21.70
2019-06-20T20:06:09.745Z,21.60
2019-06-20T20:10:13.157Z,21.50
2019-06-20T20:14:16.167Z,21.50
2019-06-20T20:18:19.197Z,21.40
2019-06-20T20:22:22.217Z,21.30
2019-06-20T20:26:25.387Z,21.20
2019-06-20T20:30:28.397Z,21.20
2019-06-20T20:34:32.154Z,21.00
2019-06-20T20:38:35.158Z,20.60
2019-06-20T20:42:38.192Z,20.70
2019-06-20T20:46:41.282Z,20.70
2019-06-20T20:50:47.278Z,20.90
2019-06-20T20:54:50.453Z,21.00
2019-06-20T20:58:53.472Z,21.00
2019-06-20T21:02:56.496Z,20.90
2019-06-20T21:06:59.517Z,20.90
2019-06-20T21:11:02.591Z,21.00
2019-06-20T21:15:06.689Z,21.00
2019-06-20T21:19:09.780Z,20.90
2019-06-20T21:23:12.807Z,20.80
2019-06-20T21:27:15.838Z,20.70
2019-06-20T21:31:18.940Z,20.60
2019-06-20T21:35:23.321Z,20.30
2019-06-20T21:39:26.360Z,20.30
2019-06-20T21:43:29.487Z,20.30
2019-06-20T21:47:32.562Z,20.20
2019-06-20T21:51:35.580Z,20.30
2019-06-20T21:55:38.589Z,20.40
2019-06-20T21:59:41.601Z,20.40
2019-06-20T22:03:44.591Z,20.40
2019-06-20T22:07:47.707Z,20.30
2019-06-20T22:11:50.728Z,20.40
2019-06-20T22:15:53.851Z,20.50
2019-06-20T22:19:56.965Z,20.40
2019-06-20T22:24:00.013Z,20.30
2019-06-20T22:28:03.971Z,20.20
2019-06-20T22:32:07.091Z,20.20
2019-06-20T22:36:10.844Z,20.20
2019-06-20T22:40:14.400Z,20.10
2019-06-20T22:44:17.425Z,20.20
2019-06-20T22:48:20.424Z,20.00
2019-06-20T22:52:23.528Z,20.00
2019-06-20T22:56:26.520Z,19.70
2019-06-20T23:00:29.597Z,19.90
2019-06-20T23:04:32.730Z,19.90
2019-06-20T23:08:35.765Z,19.90
2019-06-20T23:12:38.911Z,20.00
2019-06-20T23:16:41.934Z,20.00
2019-06-20T23:21:03.726Z,20.00
2019-06-20T23:24:50.198Z,20.10
2019-06-20T23:28:55.369Z,20.10
2019-06-20T23:32:58.369Z,20.00
2019-06-20T23:37:12.317Z,19.90
2019-06-20T23:41:07.169Z,19.70
2019-06-20T23:45:10.473Z,19.70
2019-06-20T23:49:13.497Z,19.70
2019-06-20T23:53:18.410Z,19.40
2019-06-20T23:57:21.617Z,19.30
